Time;durP1;ratioP1;P1;durP2;ratioP2;P2;SDS_P1;SDS_P2;PMS_P1;PMS_P2;Temp;Humidity;BMP_temperature;BMP_pressure;BME280_temperature;BME280_humidity;BME280_pressure;Samples;Min_cycle;Max_cycle;Signal;HPM_P1;HPM_P2
2023/12/07 00:01:37;;;;;;;20.77;12.60;;;0.70;58.30;;;;;;4950876;28;46396;-66
2023/12/07 00:04:03;;;;;;;21.77;11.48;;;0.60;58.30;;;;;;4948764;28;46693;-65
2023/12/07 00:06:28;;;;;;;17.73;11.70;;;0.60;58.50;;;;;;4949784;28;46701;-66
2023/12/07 00:08:54;;;;;;;20.97;11.60;;;0.50;58.80;;;;;;4950928;28;46311;-66
2023/12/07 00:11:22;;;;;;;19.60;11.40;;;0.40;58.90;;;;;;4949646;28;46452;-65
2023/12/07 00:13:48;;;;;;;26.02;12.32;;;0.40;59.10;;;;;;4950665;28;46311;-66
2023/12/07 00:16:14;;;;;;;21.27;11.70;;;0.40;59.00;;;;;;4948583;28;46479;-65
2023/12/07 00:18:39;;;;;;;20.40;12.00;;;0.30;58.90;;;;;;4947547;28;46728;-66
2023/12/07 00:21:07;;;;;;;20.90;12.23;;;0.30;59.00;;;;;;4946524;28;46518;-65
2023/12/07 00:23:33;;;;;;;22.27;12.18;;;0.20;59.20;;;;;;4949101;28;46482;-65
2023/12/07 00:25:58;;;;;;;22.47;12.97;;;0.20;59.10;;;;;;4948529;28;46469;-65
2023/12/07 00:28:24;;;;;;;22.27;12.27;;;0.10;59.10;;;;;;4951816;28;46530;-66
2023/12/07 00:30:50;;;;;;;22.53;12.90;;;0.10;59.30;;;;;;4948847;28;46415;-64
2023/12/07 00:33:16;;;;;;;22.73;12.47;;;0.10;59.50;;;;;;4949967;28;46283;-66
2023/12/07 00:35:42;;;;;;;19.50;11.65;;;0.00;59.70;;;;;;4934592;28;48172;-65
2023/12/07 00:38:08;;;;;;;18.80;12.23;;;-0.10;59.90;;;;;;4953825;28;46492;-66
2023/12/07 00:40:36;;;;;;;21.17;11.80;;;-0.20;60.00;;;;;;4949671;28;46653;-66
2023/12/07 00:43:03;;;;;;;19.17;10.77;;;-0.20;60.20;;;;;;4948015;28;46505;-63
2023/12/07 00:45:28;;;;;;;19.20;11.55;;;-0.20;60.20;;;;;;4949165;28;47300;-66
2023/12/07 00:47:54;;;;;;;22.20;12.70;;;-0.30;60.30;;;;;;4947105;28;46480;-66
2023/12/07 00:50:19;;;;;;;22.90;12.00;;;-0.40;60.30;;;;;;4948961;28;46529;-65
2023/12/07 00:52:45;;;;;;;22.67;13.03;;;-0.50;60.40;;;;;;4950481;28;46665;-66
2023/12/07 00:55:11;;;;;;;20.27;11.17;;;-0.50;60.60;;;;;;4949824;28;46403;-65
2023/12/07 00:57:36;;;;;;;23.13;12.07;;;-0.60;60.60;;;;;;4951339;28;46395;-67
2023/12/07 01:00:03;;;;;;;20.90;12.30;;;-0.60;60.50;;;;;;4951126;28;46432;-64
2023/12/07 01:02:29;;;;;;;24.92;12.05;;;-0.70;60.50;;;;;;4948928;28;46856;-65
2023/12/07 01:04:54;;;;;;;19.20;11.33;;;-0.70;60.50;;;;;;4948522;28;45955;-65
2023/12/07 01:07:21;;;;;;;20.90;10.90;;;-0.90;60.50;;;;;;4949845;28;46763;-67
2023/12/07 01:09:46;;;;;;;21.02;11.25;;;-0.90;60.50;;;;;;4948259;28;46401;-66
2023/12/07 01:12:12;;;;;;;19.27;11.63;;;-0.90;60.50;;;;;;4950799;28;46621;-65
2023/12/07 01:14:38;;;;;;;20.93;11.10;;;-1.00;60.50;;;;;;4949860;28;46432;-66
2023/12/07 01:17:04;;;;;;;20.83;10.97;;;-1.00;60.50;;;;;;4948487;28;46848;-66
2023/12/07 01:19:29;;;;;;;20.58;11.80;;;-1.00;60.50;;;;;;4952344;28;46500;-65
2023/12/07 01:21:55;;;;;;;23.67;12.77;;;-1.00;60.20;;;;;;4950861;28;46699;-66
2023/12/07 01:24:20;;;;;;;24.90;12.30;;;-1.00;60.00;;;;;;4950004;28;46737;-64
2023/12/07 01:26:46;;;;;;;20.07;11.27;;;-1.00;59.90;;;;;;4951026;28;46482;-65
2023/12/07 01:29:13;;;;;;;25.30;14.37;;;-1.00;59.70;;;;;;4948619;28;46515;-66
2023/12/07 01:31:39;;;;;;;20.25;11.40;;;-0.80;59.70;;;;;;4947553;28;46522;-66
2023/12/07 01:34:05;;;;;;;21.42;11.98;;;-0.90;59.20;;;;;;4945946;28;47133;-64
2023/12/07 01:36:31;;;;;;;22.30;11.47;;;-0.70;58.90;;;;;;4951110;28;45866;-65
2023/12/07 01:38:56;;;;;;;20.63;12.13;;;-0.70;58.60;;;;;;4948541;28;46413;-65
2023/12/07 01:41:23;;;;;;;22.90;12.25;;;-0.60;58.30;;;;;;4947685;28;47048;-66
2023/12/07 01:43:49;;;;;;;21.30;11.60;;;-0.50;58.20;;;;;;4946216;28;46637;-64
2023/12/07 01:46:16;;;;;;;26.03;13.07;;;-0.50;57.60;;;;;;4949185;28;46304;-65
2023/12/07 01:48:43;;;;;;;23.67;11.43;;;-0.40;57.50;;;;;;4947561;28;46455;-66
2023/12/07 01:51:10;;;;;;;24.33;12.00;;;-0.30;58.30;;;;;;4948846;28;46423;-65
2023/12/07 01:53:37;;;;;;;18.00;11.15;;;-0.20;56.70;;;;;;4948342;28;46558;-66
2023/12/07 01:56:03;;;;;;;22.48;11.70;;;-0.10;56.80;;;;;;4950672;28;46534;-66
2023/12/07 01:58:30;;;;;;;20.83;11.38;;;-0.10;56.80;;;;;;4946232;28;46416;-64
2023/12/07 02:00:56;;;;;;;24.55;12.20;;;0.00;56.90;;;;;;4937691;28;46686;-66
2023/12/07 02:03:21;;;;;;;20.50;11.20;;;0.00;56.90;;;;;;4950919;28;46490;-65
2023/12/07 02:05:48;;;;;;;19.70;10.70;;;0.10;57.00;;;;;;4946683;28;46346;-66
2023/12/07 02:08:14;;;;;;;20.60;11.43;;;0.10;57.00;;;;;;4947151;28;46436;-66
2023/12/07 02:10:41;;;;;;;19.03;12.07;;;0.20;57.10;;;;;;4950544;28;46716;-65
2023/12/07 02:13:08;;;;;;;17.77;9.80;;;0.20;56.90;;;;;;4946316;28;46515;-64
2023/12/07 02:15:34;;;;;;;20.35;11.55;;;0.20;56.90;;;;;;4949316;28;46672;-66
2023/12/07 02:18:27;;;;;;;21.17;11.03;;;0.30;57.00;;;;;;4948337;28;46380;-66
2023/12/07 02:21:33;;;;;;;18.80;10.65;;;0.30;56.40;;;;;;4949178;28;46497;-65
2023/12/07 02:23:59;;;;;;;18.10;10.10;;;0.30;56.40;;;;;;4945096;28;46325;-66
2023/12/07 02:26:53;;;;;;;16.67;9.45;;;0.30;56.80;;;;;;4949435;28;46582;-67
2023/12/07 02:29:19;;;;;;;20.02;10.25;;;0.30;57.20;;;;;;4932813;28;46384;-66
2023/12/07 02:31:45;;;;;;;19.37;10.80;;;0.30;57.20;;;;;;4952721;28;46632;-67
2023/12/07 02:34:11;;;;;;;21.02;11.23;;;0.30;57.20;;;;;;4951847;28;46409;-65
2023/12/07 02:36:39;;;;;;;20.10;10.93;;;0.30;57.20;;;;;;4950429;28;46352;-67
2023/12/07 02:39:06;;;;;;;21.45;11.15;;;0.30;57.20;;;;;;4952490;28;46465;-66
2023/12/07 02:41:32;;;;;;;18.35;11.30;;;0.20;57.10;;;;;;4950899;28;46582;-64
2023/12/07 02:43:59;;;;;;;20.83;10.85;;;0.10;57.00;;;;;;4933710;28;46423;-66
2023/12/07 02:46:25;;;;;;;18.05;10.68;;;-0.10;58.20;;;;;;4950606;28;46445;-66
2023/12/07 02:48:51;;;;;;;19.48;10.02;;;-0.20;58.70;;;;;;4952123;28;46406;-66
2023/12/07 02:51:17;;;;;;;19.23;10.73;;;-0.30;60.10;;;;;;4952334;28;46459;-66
2023/12/07 02:53:42;;;;;;;20.60;11.37;;;-0.40;59.30;;;;;;4950873;28;47274;-64
2023/12/07 02:56:08;;;;;;;17.60;10.30;;;-0.40;59.40;;;;;;4935159;28;46384;-65
2023/12/07 02:58:33;;;;;;;18.50;10.10;;;-0.50;59.40;;;;;;4953829;28;46262;-66
2023/12/07 03:00:59;;;;;;;18.70;11.87;;;-0.40;59.40;;;;;;4953113;28;46407;-66
2023/12/07 03:03:25;;;;;;;18.50;11.00;;;-0.50;59.20;;;;;;4953244;28;46464;-65
2023/12/07 03:05:50;;;;;;;18.13;10.87;;;-0.50;59.20;;;;;;4947618;28;45859;-65
2023/12/07 03:08:16;;;;;;;23.73;13.30;;;-0.40;59.20;;;;;;4948840;28;46375;-66
2023/12/07 03:10:42;;;;;;;28.90;12.60;;;-0.40;58.80;;;;;;4951765;28;46018;-66
2023/12/07 03:13:07;;;;;;;19.40;12.00;;;-0.40;58.60;;;;;;4934343;28;48217;-65
2023/12/07 03:15:33;;;;;;;19.90;10.87;;;-0.30;58.40;;;;;;4934596;28;46167;-65
2023/12/07 03:17:58;;;;;;;20.33;10.70;;;-0.30;58.10;;;;;;4949618;28;46780;-67
2023/12/07 03:20:24;;;;;;;20.93;11.20;;;-0.30;57.90;;;;;;4951909;28;46343;-66
2023/12/07 03:22:49;;;;;;;20.87;12.13;;;-0.20;57.90;;;;;;4950404;28;46005;-63
2023/12/07 03:25:15;;;;;;;23.23;11.80;;;-0.20;57.80;;;;;;4952900;28;46364;-66
2023/12/07 03:27:41;;;;;;;20.43;10.90;;;-0.30;57.80;;;;;;4950049;28;46448;-66
2023/12/07 03:30:07;;;;;;;17.90;10.80;;;-0.40;57.80;;;;;;4951639;28;46819;-67
2023/12/07 03:32:32;;;;;;;18.75;11.27;;;-0.50;58.10;;;;;;4951522;28;46427;-65
2023/12/07 03:34:58;;;;;;;20.07;11.47;;;-0.60;58.40;;;;;;4950828;28;46415;-65
2023/12/07 03:37:23;;;;;;;21.20;11.47;;;-0.60;58.60;;;;;;4951740;28;46154;-66
2023/12/07 03:39:49;;;;;;;20.13;11.00;;;-0.70;58.80;;;;;;4951925;28;45845;-66
2023/12/07 03:42:15;;;;;;;25.30;10.67;;;-0.80;58.80;;;;;;4951581;28;47153;-66
2023/12/07 03:44:40;;;;;;;17.73;10.27;;;-0.80;59.00;;;;;;4951596;28;46130;-66
2023/12/07 03:47:06;;;;;;;20.87;11.30;;;-0.90;59.10;;;;;;4949403;28;46438;-66
2023/12/07 03:49:31;;;;;;;18.67;10.33;;;-1.00;59.20;;;;;;4953964;28;46485;-66
2023/12/07 03:51:57;;;;;;;20.73;10.40;;;-1.10;59.20;;;;;;4945843;28;46991;-66
2023/12/07 03:54:23;;;;;;;19.10;11.60;;;-1.10;59.40;;;;;;4948554;28;46169;-66
2023/12/07 03:56:48;;;;;;;23.37;11.20;;;-1.10;59.40;;;;;;4950970;28;46454;-67
2023/12/07 03:59:15;;;;;;;18.83;10.10;;;-1.20;59.40;;;;;;4947501;28;46647;-66
2023/12/07 04:01:40;;;;;;;21.83;11.07;;;-1.30;59.40;;;;;;4949515;28;46587;-65
2023/12/07 04:04:06;;;;;;;19.30;10.17;;;-1.30;59.50;;;;;;4951312;28;46352;-65
2023/12/07 04:06:31;;;;;;;16.80;10.30;;;-1.30;59.40;;;;;;4952103;28;46376;-65
2023/12/07 04:08:57;;;;;;;17.90;10.57;;;-1.30;59.60;;;;;;4952668;28;46357;-66
2023/12/07 04:11:23;;;;;;;19.80;10.30;;;-1.40;59.50;;;;;;4936704;28;47267;-66
2023/12/07 04:13:48;;;;;;;17.33;9.20;;;-1.50;59.60;;;;;;4949456;28;46523;-64
2023/12/07 04:16:14;;;;;;;19.17;9.73;;;-1.70;59.80;;;;;;4954523;28;46463;-64
2023/12/07 04:18:40;;;;;;;17.40;9.77;;;-1.90;60.20;;;;;;4948931;28;46831;-64
2023/12/07 04:21:06;;;;;;;18.20;9.57;;;-2.00;60.60;;;;;;4950484;28;46445;-64
2023/12/07 04:23:31;;;;;;;20.70;9.70;;;-2.10;60.70;;;;;;4952085;28;46376;-66
2023/12/07 04:25:57;;;;;;;15.13;9.20;;;-2.10;60.50;;;;;;4951029;28;46482;-64
2023/12/07 04:28:22;;;;;;;16.97;9.37;;;-2.10;61.50;;;;;;4950612;28;46388;-65
2023/12/07 04:30:48;;;;;;;16.63;9.40;;;-2.10;60.30;;;;;;4949592;28;46942;-66
2023/12/07 04:33:14;;;;;;;15.93;8.87;;;-2.10;60.10;;;;;;4950198;28;46447;-64
2023/12/07 04:35:39;;;;;;;18.77;9.47;;;-2.10;60.10;;;;;;4939539;28;46363;-65
2023/12/07 04:40:33;;;;;;;18.40;8.95;;;-2.20;60.20;;;;;;4974971;28;46426;-69
2023/12/07 04:42:59;;;;;;;16.60;9.33;;;-2.30;60.30;;;;;;4980362;28;46421;-70
2023/12/07 04:45:24;;;;;;;14.73;8.30;;;-2.40;60.20;;;;;;4981104;28;46463;-70
2023/12/07 04:47:50;;;;;;;18.90;9.80;;;-2.40;60.20;;;;;;4958012;28;46453;-70
2023/12/07 04:50:16;;;;;;;17.10;9.53;;;-2.40;60.00;;;;;;4962553;28;46353;-70
2023/12/07 04:52:41;;;;;;;16.80;8.43;;;-2.40;60.00;;;;;;4961306;28;46572;-71
2023/12/07 04:55:07;;;;;;;19.57;10.07;;;-2.40;60.00;;;;;;4960584;28;46496;-70
2023/12/07 04:57:36;;;;;;;16.27;9.60;;;-2.30;59.90;;;;;;4962942;28;46310;-70
2023/12/07 05:00:06;;;;;;;17.80;9.90;;;-2.30;59.80;;;;;;4963048;28;46473;-69
2023/12/07 05:02:32;;;;;;;18.15;9.95;;;-2.30;59.60;;;;;;4954206;28;46430;-70
2023/12/07 05:04:58;;;;;;;23.00;10.18;;;-2.20;59.60;;;;;;4957916;28;46544;-68
2023/12/07 05:07:24;;;;;;;17.77;9.20;;;-2.20;59.50;;;;;;4960978;28;46350;-70
2023/12/07 05:09:53;;;;;;;18.70;9.20;;;-2.10;59.50;;;;;;4956390;28;46496;-70
2023/12/07 05:12:18;;;;;;;19.30;10.30;;;-2.10;59.40;;;;;;4962147;28;46407;-69
2023/12/07 05:14:44;;;;;;;17.57;9.57;;;-2.10;59.40;;;;;;4963215;28;46474;-70
2023/12/07 05:17:09;;;;;;;19.17;10.40;;;-2.10;59.50;;;;;;4965058;28;46533;-70
2023/12/07 05:19:35;;;;;;;18.57;10.40;;;-2.10;59.40;;;;;;4961321;28;46479;-70
2023/12/07 05:22:01;;;;;;;18.60;9.80;;;-2.10;59.60;;;;;;4963769;28;46375;-71
2023/12/07 05:24:27;;;;;;;20.90;10.43;;;-2.20;59.60;;;;;;4956339;28;46465;-70
2023/12/07 05:26:52;;;;;;;18.25;9.40;;;-2.20;59.70;;;;;;4960787;28;46554;-70
2023/12/07 05:29:19;;;;;;;17.87;9.03;;;-2.30;59.60;;;;;;4963684;28;46496;-69
2023/12/07 05:31:44;;;;;;;19.30;10.43;;;-2.30;59.80;;;;;;4958534;28;46929;-71
2023/12/07 05:34:10;;;;;;;18.90;10.73;;;-2.40;59.90;;;;;;4960344;28;46430;-70
2023/12/07 05:36:36;;;;;;;20.15;10.23;;;-2.50;60.00;;;;;;4958817;28;45919;-70
2023/12/07 05:39:02;;;;;;;16.60;9.53;;;-2.60;60.00;;;;;;4956125;28;46490;-70
2023/12/07 05:41:28;;;;;;;24.88;10.00;;;-2.60;60.10;;;;;;4960713;28;46421;-70
2023/12/07 05:43:53;;;;;;;15.97;9.20;;;-2.70;60.00;;;;;;4963582;28;46449;-69
2023/12/07 05:46:19;;;;;;;20.80;10.37;;;-2.80;60.00;;;;;;4955290;28;46429;-71
2023/12/07 05:48:45;;;;;;;21.93;11.03;;;-2.80;60.00;;;;;;4957964;28;46436;-72
2023/12/07 05:51:15;;;;;;;16.17;9.45;;;-2.70;60.20;;;;;;4962822;28;46412;-71
2023/12/07 05:53:41;;;;;;;18.25;9.13;;;-2.90;60.00;;;;;;4963487;28;46488;-70
2023/12/07 05:56:07;;;;;;;17.73;9.55;;;-2.90;60.00;;;;;;4963332;28;46603;-70
2023/12/07 05:58:33;;;;;;;15.37;8.30;;;-3.00;60.00;;;;;;4960925;28;46494;-71
2023/12/07 06:00:59;;;;;;;13.23;7.47;;;-3.10;60.00;;;;;;4958515;28;46647;-71
2023/12/07 06:03:25;;;;;;;17.13;8.65;;;-3.20;60.00;;;;;;4962142;28;46556;-71
2023/12/07 06:05:51;;;;;;;17.60;9.13;;;-3.40;60.00;;;;;;4959529;28;46628;-71
2023/12/07 06:08:17;;;;;;;15.02;8.13;;;-3.60;60.00;;;;;;4963886;28;47005;-71
2023/12/07 06:10:42;;;;;;;14.73;7.67;;;-3.70;60.00;;;;;;4961941;28;46397;-70
2023/12/07 06:13:08;;;;;;;14.13;7.50;;;-3.70;60.00;;;;;;4963964;28;46524;-71
2023/12/07 06:15:34;;;;;;;16.70;7.20;;;-3.80;60.00;;;;;;4960941;28;46539;-71
2023/12/07 06:18:00;;;;;;;20.93;8.30;;;-3.90;59.90;;;;;;4952961;28;46548;-70
2023/12/07 06:20:25;;;;;;;13.02;6.55;;;-4.00;59.80;;;;;;4960843;28;45931;-70
2023/12/07 06:22:51;;;;;;;17.43;8.47;;;-4.00;59.70;;;;;;4961346;28;46692;-70
2023/12/07 06:25:17;;;;;;;16.43;7.53;;;-4.10;59.60;;;;;;4960722;28;46530;-70
2023/12/07 06:27:42;;;;;;;14.43;7.80;;;-4.10;59.50;;;;;;4964333;28;46631;-69
2023/12/07 06:30:08;;;;;;;16.63;8.50;;;-4.10;59.30;;;;;;4959805;28;47027;-70
2023/12/07 06:32:34;;;;;;;15.18;8.10;;;-4.10;59.20;;;;;;4964241;28;46541;-70
2023/12/07 06:35:00;;;;;;;12.57;7.37;;;-4.10;60.00;;;;;;4964185;28;46446;-71
2023/12/07 06:37:26;;;;;;;12.10;7.20;;;-4.10;59.00;;;;;;4963751;28;46655;-70
2023/12/07 06:39:52;;;;;;;12.20;6.77;;;-4.20;58.90;;;;;;4962733;28;46709;-70
2023/12/07 06:42:18;;;;;;;14.98;7.75;;;-4.40;59.00;;;;;;4960153;28;46342;-70
2023/12/07 06:44:48;;;;;;;10.57;6.43;;;-4.50;59.00;;;;;;4957210;28;46040;-71
2023/12/07 06:47:14;;;;;;;17.50;8.00;;;-4.60;59.00;;;;;;4967898;28;46560;-70
2023/12/07 06:49:39;;;;;;;14.87;7.27;;;-4.60;59.00;;;;;;4963701;28;46453;-70
2023/12/07 06:52:05;;;;;;;24.73;7.20;;;-4.70;58.90;;;;;;4957077;28;46653;-69
2023/12/07 06:54:30;;;;;;;13.13;7.07;;;-4.70;58.90;;;;;;4961868;28;46500;-71
2023/12/07 06:56:56;;;;;;;14.13;6.57;;;-4.60;58.80;;;;;;4963493;28;46997;-69
2023/12/07 06:59:22;;;;;;;14.33;7.47;;;-4.60;58.40;;;;;;4957753;28;46749;-71
2023/12/07 07:01:47;;;;;;;13.10;7.10;;;-4.60;58.20;;;;;;4962154;28;46585;-68
2023/12/07 07:04:13;;;;;;;12.43;6.90;;;-4.50;58.20;;;;;;4959525;28;46443;-70
2023/12/07 07:06:41;;;;;;;13.53;6.60;;;-4.50;57.80;;;;;;4957006;28;47309;-69
2023/12/07 07:09:06;;;;;;;13.98;6.50;;;-4.40;57.60;;;;;;4961421;28;46451;-69
2023/12/07 07:11:32;;;;;;;12.07;7.70;;;-4.30;57.30;;;;;;4950877;28;46708;-69
2023/12/07 07:13:57;;;;;;;16.30;7.50;;;-4.20;57.00;;;;;;4957954;28;46674;-69
2023/12/07 07:16:23;;;;;;;21.03;10.37;;;-4.20;56.90;;;;;;4954389;28;46908;-69
2023/12/07 07:18:49;;;;;;;21.20;11.80;;;-4.20;57.00;;;;;;4958922;28;45848;-71
2023/12/07 07:21:14;;;;;;;23.13;11.10;;;-4.10;56.90;;;;;;4960359;28;46535;-70
2023/12/07 07:23:40;;;;;;;25.77;11.97;;;-3.90;56.70;;;;;;4960264;28;46328;-71
2023/12/07 07:26:05;;;;;;;25.13;12.67;;;-3.70;56.40;;;;;;4956491;28;46566;-71
2023/12/07 07:28:31;;;;;;;19.73;8.87;;;-3.50;56.10;;;;;;4962366;28;46875;-71
2023/12/07 07:30:57;;;;;;;23.03;12.10;;;-3.40;55.80;;;;;;4958646;28;46732;-71
2023/12/07 07:33:23;;;;;;;19.27;11.47;;;-3.30;55.80;;;;;;4959823;28;46672;-71
2023/12/07 07:35:48;;;;;;;15.10;8.57;;;-3.30;55.70;;;;;;4960917;28;46970;-72
2023/12/07 07:38:14;;;;;;;15.50;8.87;;;-3.20;56.00;;;;;;4961020;28;46404;-71
2023/12/07 07:40:41;;;;;;;14.90;8.55;;;-3.20;56.10;;;;;;4959670;28;46545;-69
2023/12/07 07:43:07;;;;;;;21.98;9.25;;;-3.10;56.10;;;;;;4962192;28;46428;-70
2023/12/07 07:45:32;;;;;;;16.93;8.60;;;-2.90;56.20;;;;;;4959515;28;47423;-70
2023/12/07 07:47:58;;;;;;;17.20;9.60;;;-2.80;56.10;;;;;;4963714;28;46285;-71
2023/12/07 07:50:23;;;;;;;15.13;8.53;;;-2.70;55.90;;;;;;4963142;28;46077;-71
2023/12/07 07:52:49;;;;;;;17.37;9.10;;;-2.60;55.80;;;;;;4958167;28;46832;-72
2023/12/07 07:55:15;;;;;;;15.53;8.33;;;-2.60;55.70;;;;;;4962295;28;47988;-69
2023/12/07 07:57:40;;;;;;;10.70;6.60;;;-2.60;56.00;;;;;;4958791;28;46365;-70
2023/12/07 08:00:08;;;;;;;13.73;7.27;;;-2.70;56.10;;;;;;4958567;28;46481;-70
2023/12/07 08:02:34;;;;;;;10.90;6.85;;;-2.70;56.20;;;;;;4957762;28;46915;-68
2023/12/07 08:05:00;;;;;;;13.43;7.38;;;-2.70;56.40;;;;;;4960321;28;47164;-71
2023/12/07 08:07:26;;;;;;;12.20;7.27;;;-2.70;56.40;;;;;;4964796;28;46486;-70
2023/12/07 08:09:51;;;;;;;12.53;7.17;;;-2.70;56.20;;;;;;4961482;28;46482;-69
2023/12/07 08:12:17;;;;;;;17.30;7.50;;;-2.60;56.10;;;;;;4961298;28;46339;-70
2023/12/07 08:14:44;;;;;;;14.97;8.10;;;-2.50;56.00;;;;;;4962053;28;46694;-70
2023/12/07 08:17:11;;;;;;;13.27;7.40;;;-2.40;55.50;;;;;;4964165;28;45999;-70
2023/12/07 08:19:37;;;;;;;11.20;6.80;;;-2.20;55.00;;;;;;4961984;28;46428;-70
2023/12/07 08:22:03;;;;;;;13.65;7.45;;;-2.00;55.20;;;;;;4957684;28;46447;-70
2023/12/07 08:24:28;;;;;;;12.40;7.20;;;-2.00;54.90;;;;;;4961340;28;46441;-70
2023/12/07 08:26:54;;;;;;;10.33;6.40;;;-2.00;54.80;;;;;;4961323;28;46356;-71
2023/12/07 08:29:20;;;;;;;8.63;6.07;;;-2.00;54.70;;;;;;4961944;28;46393;-70
2023/12/07 08:31:46;;;;;;;9.93;6.40;;;-2.10;55.00;;;;;;4961068;28;46440;-71
2023/12/07 08:34:12;;;;;;;10.48;6.10;;;-2.20;55.00;;;;;;4960142;28;46433;-70
2023/12/07 08:36:38;;;;;;;13.40;6.50;;;-2.20;55.00;;;;;;4962620;28;46585;-70
2023/12/07 08:39:03;;;;;;;11.70;6.33;;;-2.20;55.00;;;;;;4957246;28;46508;-69
2023/12/07 08:41:29;;;;;;;11.07;6.10;;;-2.10;55.10;;;;;;4958720;28;45941;-71
2023/12/07 08:43:54;;;;;;;11.00;6.40;;;-2.10;55.10;;;;;;4961365;28;46574;-70
2023/12/07 08:46:20;;;;;;;10.00;6.63;;;-2.00;55.00;;;;;;4958127;28;46623;-71
2023/12/07 08:48:45;;;;;;;14.67;7.80;;;-1.80;54.50;;;;;;4961615;28;46488;-70
2023/12/07 08:51:11;;;;;;;15.43;8.37;;;-1.70;55.30;;;;;;4959027;28;46396;-69
2023/12/07 08:53:38;;;;;;;14.75;7.43;;;-1.50;53.80;;;;;;4963308;28;46524;-69
2023/12/07 08:56:04;;;;;;;10.65;6.82;;;-1.50;53.80;;;;;;4963296;28;46311;-69
2023/12/07 08:58:30;;;;;;;10.75;6.22;;;-1.40;53.90;;;;;;4962169;28;46345;-70
2023/12/07 09:00:55;;;;;;;13.93;6.87;;;-1.30;53.60;;;;;;4961653;28;46789;-70
2023/12/07 09:03:25;;;;;;;12.70;7.50;;;-1.20;53.30;;;;;;4960283;28;46475;-70
2023/12/07 09:05:51;;;;;;;12.23;7.10;;;-1.10;53.00;;;;;;4959886;28;46427;-68
2023/12/07 09:08:16;;;;;;;13.97;6.83;;;-1.00;54.00;;;;;;4961356;28;46504;-67
2023/12/07 09:10:42;;;;;;;10.03;6.13;;;-1.00;52.60;;;;;;4962558;28;46573;-69
2023/12/07 09:13:08;;;;;;;13.57;7.30;;;-1.00;52.70;;;;;;4960522;28;47193;-70
2023/12/07 09:15:37;;;;;;;10.60;6.23;;;-0.90;52.40;;;;;;4959985;28;46353;-70
2023/12/07 09:18:03;;;;;;;12.32;6.72;;;-0.80;52.20;;;;;;4961123;28;46441;-70
2023/12/07 09:20:28;;;;;;;12.25;7.15;;;-0.60;51.80;;;;;;4960488;28;46558;-69
2023/12/07 09:22:55;;;;;;;14.57;6.50;;;-0.50;51.40;;;;;;4956633;28;46962;-69
2023/12/07 09:25:21;;;;;;;13.52;6.50;;;-0.40;50.90;;;;;;4961262;28;46447;-69
2023/12/07 09:27:47;;;;;;;11.80;6.90;;;-0.30;50.70;;;;;;4960953;28;46421;-70
2023/12/07 09:30:13;;;;;;;10.30;6.53;;;-0.20;50.50;;;;;;4963961;28;46537;-68
2023/12/07 09:32:42;;;;;;;14.13;7.13;;;-0.10;50.50;;;;;;4961631;28;46459;-68
2023/12/07 09:35:18;;;;;;;10.57;6.45;;;-0.10;50.40;;;;;;4959344;28;46502;-70
2023/12/07 09:37:45;;;;;;;12.55;6.95;;;0.00;50.20;;;;;;4962395;28;46603;-68
2023/12/07 09:40:19;;;;;;;12.63;7.20;;;0.00;50.10;;;;;;4961116;28;46583;-66
2023/12/07 09:42:48;;;;;;;12.55;7.10;;;0.10;50.10;;;;;;4957688;28;45985;-69
2023/12/07 09:45:16;;;;;;;11.93;6.93;;;0.10;50.10;;;;;;4959280;28;46286;-68
2023/12/07 09:47:42;;;;;;;16.23;7.90;;;0.30;49.80;;;;;;4965464;28;46600;-70
2023/12/07 09:50:09;;;;;;;14.02;7.32;;;0.40;49.40;;;;;;4961387;28;46370;-69
2023/12/07 09:52:35;;;;;;;10.77;6.85;;;0.60;49.00;;;;;;4959251;28;46398;-68
2023/12/07 09:55:03;;;;;;;16.08;8.00;;;0.70;48.60;;;;;;4958438;28;46408;-68
2023/12/07 09:57:29;;;;;;;11.65;7.57;;;0.80;48.70;;;;;;4958376;28;46604;-68
2023/12/07 09:59:55;;;;;;;11.90;7.40;;;0.70;48.60;;;;;;4958211;28;46645;-70
2023/12/07 10:02:22;;;;;;;13.48;7.10;;;0.70;49.70;;;;;;4958717;28;47201;-69
2023/12/07 10:04:48;;;;;;;13.45;7.93;;;0.70;48.40;;;;;;4961392;28;46326;-70
2023/12/07 10:07:13;;;;;;;11.88;7.43;;;0.80;48.30;;;;;;4958841;28;46480;-68
2023/12/07 10:09:42;;;;;;;14.17;8.13;;;0.80;48.30;;;;;;4957213;28;46640;-69
2023/12/07 10:12:08;;;;;;;14.65;7.80;;;0.90;48.30;;;;;;4959200;28;46429;-68
2023/12/07 10:14:34;;;;;;;12.73;8.33;;;1.00;47.80;;;;;;4955395;28;46483;-70
2023/12/07 10:17:00;;;;;;;13.65;8.23;;;1.10;47.40;;;;;;4954623;28;46501;-68
2023/12/07 10:19:27;;;;;;;12.15;7.82;;;1.20;47.30;;;;;;4958487;28;46490;-69
2023/12/07 10:21:53;;;;;;;13.18;6.97;;;1.30;47.10;;;;;;4952392;28;48380;-69
2023/12/07 10:24:21;;;;;;;13.57;7.68;;;1.50;46.90;;;;;;4952769;28;46733;-71
2023/12/07 10:26:49;;;;;;;11.43;7.35;;;1.70;46.60;;;;;;4960384;28;46766;-70
2023/12/07 10:29:16;;;;;;;12.95;7.97;;;2.00;45.80;;;;;;4960530;28;46400;-70
2023/12/07 10:31:43;;;;;;;13.50;7.45;;;2.10;45.90;;;;;;4969111;28;47063;-70
2023/12/07 10:34:09;;;;;;;15.38;8.50;;;2.20;45.90;;;;;;4958130;28;47015;-70
2023/12/07 10:36:34;;;;;;;13.87;8.57;;;2.40;46.10;;;;;;4951787;28;48339;-68
2023/12/07 10:39:00;;;;;;;14.60;8.00;;;2.60;46.30;;;;;;4960475;28;45994;-70
2023/12/07 10:41:26;;;;;;;15.97;7.80;;;2.80;46.20;;;;;;4962478;28;46557;-70
2023/12/07 10:43:58;;;;;;;13.20;7.70;;;2.90;45.50;;;;;;4957915;28;46399;-70
2023/12/07 10:46:24;;;;;;;13.98;8.95;;;3.00;45.20;;;;;;4958188;28;46410;-71
2023/12/07 10:48:59;;;;;;;11.98;8.00;;;3.00;44.90;;;;;;4955786;28;46472;-71
2023/12/07 10:51:40;;;;;;;10.95;7.25;;;3.00;44.90;;;;;;4960973;28;46938;-70
2023/12/07 10:54:11;;;;;;;12.13;7.70;;;3.10;44.70;;;;;;4956565;28;46747;-69
2023/12/07 10:56:44;;;;;;;13.00;7.63;;;3.10;44.50;;;;;;4962748;28;46779;-71
2023/12/07 10:59:12;;;;;;;12.52;7.10;;;3.20;44.40;;;;;;4961667;28;46675;-70
2023/12/07 11:01:42;;;;;;;10.90;7.15;;;3.20;44.20;;;;;;4959590;28;47034;-70
2023/12/07 11:04:11;;;;;;;12.38;6.88;;;3.30;44.10;;;;;;4963913;28;47173;-71
2023/12/07 11:06:39;;;;;;;13.57;7.00;;;3.30;43.90;;;;;;4961959;28;46452;-70
2023/12/07 11:09:13;;;;;;;18.45;9.02;;;3.40;43.80;;;;;;4965930;28;46353;-69
2023/12/07 11:11:47;;;;;;;14.02;7.68;;;3.40;43.50;;;;;;4962362;28;48110;-70
2023/12/07 11:14:16;;;;;;;12.25;7.22;;;3.50;43.50;;;;;;4959657;28;46419;-71
2023/12/07 11:16:43;;;;;;;21.90;12.40;;;3.40;43.20;;;;;;4957329;28;46513;-70
2023/12/07 11:19:46;;;;;;;27.08;13.70;;;3.40;43.20;;;;;;4962360;28;45944;-71
2023/12/07 11:22:13;;;;;;;12.50;8.20;;;3.60;43.10;;;;;;4938832;28;47102;-69
2023/12/07 11:24:52;;;;;;;9.40;6.40;;;3.70;43.10;;;;;;4956007;28;46444;-70
2023/12/07 11:27:18;;;;;;;9.23;5.22;;;3.70;42.80;;;;;;4960639;28;46548;-71
2023/12/07 11:29:47;;;;;;;8.70;5.77;;;3.80;42.20;;;;;;4959327;28;46629;-70
2023/12/07 11:32:13;;;;;;;11.77;6.00;;;3.80;42.00;;;;;;4959064;28;46263;-71
2023/12/07 11:34:41;;;;;;;9.90;5.50;;;3.90;42.00;;;;;;4954820;28;46458;-71
2023/12/07 11:37:08;;;;;;;7.93;5.50;;;3.90;41.90;;;;;;4958945;28;46504;-71
2023/12/07 11:39:47;;;;;;;11.83;5.77;;;4.00;41.60;;;;;;4962802;28;45903;-70
2023/12/07 11:42:16;;;;;;;8.82;5.47;;;4.00;41.20;;;;;;4965481;28;46470;-72
2023/12/07 11:44:44;;;;;;;8.80;5.70;;;4.10;41.20;;;;;;4964862;28;46439;-70
2023/12/07 11:47:16;;;;;;;10.32;5.82;;;4.10;41.00;;;;;;4962363;28;45906;-70
2023/12/07 11:49:42;;;;;;;9.70;5.93;;;4.20;41.10;;;;;;4953259;28;46897;-70
2023/12/07 11:52:19;;;;;;;11.57;6.10;;;4.30;41.00;;;;;;4962377;28;46421;-71
2023/12/07 11:54:49;;;;;;;14.25;6.00;;;4.30;40.70;;;;;;4959690;28;45876;-70
2023/12/07 11:57:16;;;;;;;12.45;6.72;;;4.30;40.50;;;;;;4963282;28;46212;-70
2023/12/07 11:59:47;;;;;;;9.77;6.30;;;4.40;40.30;;;;;;4959319;28;46659;-70
2023/12/07 12:02:13;;;;;;;9.30;5.80;;;4.40;41.00;;;;;;4958485;28;46519;-71
2023/12/07 12:04:43;;;;;;;7.95;4.32;;;4.40;40.00;;;;;;4957340;28;46533;-71
2023/12/07 12:07:09;;;;;;;6.57;4.25;;;4.40;40.00;;;;;;4960246;28;46436;-71
2023/12/07 12:09:34;;;;;;;5.90;3.60;;;4.40;39.80;;;;;;4960917;28;46739;-71
2023/12/07 12:12:00;;;;;;;8.40;4.87;;;4.30;39.40;;;;;;4959950;28;47429;-70
2023/12/07 12:14:27;;;;;;;8.07;5.40;;;4.10;39.40;;;;;;4958461;28;46189;-71
2023/12/07 12:16:53;;;;;;;7.20;4.67;;;3.90;39.40;;;;;;4959449;28;46335;-70
2023/12/07 12:19:19;;;;;;;9.07;5.27;;;3.80;39.70;;;;;;4960976;28;46834;-70
2023/12/07 12:21:46;;;;;;;10.20;5.03;;;3.80;39.70;;;;;;4958213;28;47282;-72
2023/12/07 12:24:12;;;;;;;9.55;4.50;;;3.90;39.30;;;;;;4960078;28;46429;-69
2023/12/07 12:26:41;;;;;;;9.93;4.47;;;4.00;38.70;;;;;;4961351;28;46581;-72
2023/12/07 12:29:08;;;;;;;6.90;3.90;;;4.00;38.10;;;;;;4959360;28;46454;-71
2023/12/07 12:31:34;;;;;;;7.00;3.53;;;4.10;37.40;;;;;;4958513;28;47070;-70
2023/12/07 12:34:05;;;;;;;5.45;3.25;;;4.10;36.80;;;;;;4955532;28;46547;-70
2023/12/07 12:36:31;;;;;;;5.45;3.05;;;4.10;36.40;;;;;;4957312;28;45810;-71
2023/12/07 12:38:56;;;;;;;12.20;3.90;;;4.10;36.50;;;;;;4964068;28;46595;-70